Flight Track Log - Related Links

Times and Time Zones

All times are in EDT time to prevent confusion due to time zone crossing. See the SWA419 flight status page for this flight to view local times or setup timezone preferences in your user account.

Time Position Orientation Groundspeed Altitude Reporting Facility
EDT Latitude Longitude Course Direction KTS MPH feet Rate Location/Type
Fri 09:34:32 AM 33.6167 -84.5000 244° Southwest 210 242 3,200  Level Atlanta TRACON
Fri 09:35:32 AM 33.5833 -84.5833 244° Southwest 271 312 5,400 2,550 Climbing Atlanta TRACON
Fri 09:36:32 AM 33.5000 -84.5833 180° South 292 336 8,300 2,204 Climbing Atlanta TRACON
Fri 09:38:48 AM 33.4578 -84.3550 102° East 343 395 12,600 2,327 Climbing Atlanta Center
Fri 09:39:48 AM 33.5019 -84.2406 65° Northeast 363 418 15,900 3,600 Climbing Atlanta Center
Fri 09:40:48 AM 33.5606 -84.1486 53° Northeast 346 398 19,800 3,050 Climbing Atlanta Center
Fri 09:41:48 AM 33.6253 -84.0514 51° Northeast 353 406 22,000 1,900 Climbing Atlanta Center
Fri 09:42:48 AM 33.6919 -83.9564 50° Northeast 366 421 23,600 2,000 Climbing Atlanta Center
Fri 09:43:48 AM 33.7567 -83.8589 51° Northeast 372 428 26,000 1,650 Climbing Atlanta Center
Fri 09:44:48 AM 33.8169 -83.7736 50° Northeast 372 428 26,900 1,000 Climbing Atlanta Center
Fri 09:45:48 AM 33.8875 -83.6658 52° Northeast 382 440 28,000 1,100 Climbing Atlanta Center
Fri 09:46:48 AM 33.9603 -83.5578 51° Northeast 403 464 29,100 1,000 Climbing Atlanta Center
Fri 09:47:48 AM 34.0369 -83.4422 51° Northeast 424 488 30,000 1,300 Climbing Atlanta Center
Fri 09:48:48 AM 34.1156 -83.3236 51° Northeast 438 504 31,700 1,500 Climbing Atlanta Center
Fri 09:49:48 AM 34.1942 -83.2100 50° Northeast 443 510 33,000 1,150 Climbing Atlanta Center
Fri 09:50:48 AM 34.2686 -83.0936 52° Northeast 443 510 34,000 950 Climbing Atlanta Center
Fri 09:51:48 AM 34.3553 -82.9669 50° Northeast 443 510 34,900 1,000 Climbing Atlanta Center
Fri 09:52:48 AM 34.4314 -82.8500 52° Northeast 443 510 36,000 700 Climbing Atlanta Center
Fri 09:53:48 AM 34.5053 -82.7331 53° Northeast 437 503 36,300 350 Climbing Atlanta Center
Fri 09:54:48 AM 34.5853 -82.6133 51° Northeast 442 509 36,700 350 Climbing Atlanta Center
Fri 09:55:48 AM 34.6572 -82.5083 50° Northeast 448 516 37,000 150 Climbing Atlanta Center
Fri 09:56:48 AM 34.7389 -82.3856 51° Northeast 454 522 37,000  Level Atlanta Center
Fri 09:57:48 AM 34.8186 -82.2625 52° Northeast 459 528 37,000  Level Atlanta Center
Fri 09:58:48 AM 34.8983 -82.1419 51° Northeast 453 521 37,000  Level Atlanta Center
Fri 09:59:48 AM 34.9736 -82.0261 52° Northeast 442 509 37,000  Level Atlanta Center
Fri 10:00:48 AM 35.0486 -81.9025 53° Northeast 447 514 37,000  Level Atlanta Center
Fri 10:01:48 AM 35.1214 -81.7636 57° Northeast 447 514 37,000  Level Atlanta Center
Fri 10:02:48 AM 35.1878 -81.6397 57° Northeast 447 514 37,000  Level Atlanta Center
Fri 10:03:48 AM 35.2542 -81.5106 58° Northeast 442 509 37,000  Level Atlanta Center
Fri 10:04:48 AM 35.3203 -81.3839 57° Northeast 442 509 37,000  Level Atlanta Center
Fri 10:05:48 AM 35.3842 -81.2569 58° Northeast 442 509 37,000  Level Atlanta Center
Fri 10:06:48 AM 35.4542 -81.1194 58° Northeast 449 517 37,000  Level Atlanta Center
Fri 10:07:48 AM 35.5258 -80.9842 57° Northeast 463 533 37,000  Level Atlanta Center
Fri 10:08:48 AM 35.5956 -80.8514 57° Northeast 463 533 37,000  Level Atlanta Center
Fri 10:09:48 AM 35.6650 -80.7158 58° Northeast 463 533 37,000  Level Atlanta Center
Fri 10:10:48 AM 35.7344 -80.5878 56° Northeast 463 533 37,000  Level Atlanta Center
Fri 10:11:48 AM 35.8033 -80.4492 58° Northeast 463 533 37,000  Level Atlanta Center
Fri 10:14:16 AM 35.9719 -80.1269 57° Northeast 467 537 37,000  Level Washington Center
Fri 10:15:17 AM 36.0478 -79.9978 54° Northeast 467 537 37,000  Level Washington Center
Fri 10:16:18 AM 36.1258 -79.8608 55° Northeast 477 549 37,000 -99 Level Washington Center
Fri 10:17:18 AM 36.2039 -79.7208 55° Northeast 482 555 36,800 -661 Descending Washington Center
Fri 10:18:16 AM 36.2881 -79.5708 55° Northeast 482 555 35,700 -1,017 Descending Washington Center
Fri 10:19:16 AM 36.3611 -79.4456 54° Northeast 488 562 34,800 -942 Descending Washington Center
Fri 10:20:17 AM 36.4433 -79.2842 58° Northeast 488 562 33,800 -1,131 Descending Washington Center
Fri 10:21:18 AM 36.5183 -79.1483 55° Northeast 488 562 32,500 -1,289 Descending Washington Center
Fri 10:22:18 AM 36.5931 -79.0247 53° Northeast 488 562 31,200 -1,160 Descending Washington Center
Fri 10:23:17 AM 36.6681 -78.8806 57° Northeast 488 562 30,200 -1,109 Descending Washington Center
Fri 10:24:17 AM 36.7425 -78.7439 56° Northeast 483 556 29,000 -595 Descending Washington Center
Fri 10:25:18 AM 36.8150 -78.6092 56° Northeast 472 543 29,000 -356 Level Washington Center
Fri 10:26:15 AM 36.8806 -78.4872 56° Northeast 472 543 28,300 -661 Descending Washington Center
Fri 10:27:16 AM 36.9742 -78.3164 56° Northeast 477 549 27,700 -843 Descending Washington Center
Fri 10:28:16 AM 37.0503 -78.1811 55° Northeast 484 557 26,600 -992 Descending Washington Center
Fri 10:29:17 AM 37.1503 -78.0933 35° Northeast 473 544 25,700 -893 Descending Washington Center
Fri 10:30:17 AM 37.2667 -78.0058 31° Northeast 467 537 24,800 -900 Descending Washington Center
Fri 10:31:17 AM 37.3831 -77.9181 31° Northeast 479 551 23,900 -942 Descending Washington Center
Fri 10:32:18 AM 37.4997 -77.8272 32° Northeast 485 558 22,900 -958 Descending Washington Center
Fri 10:33:16 AM 37.6158 -77.7392 31° Northeast 485 558 22,000 -1,000 Descending Washington Center
Fri 10:34:18 AM 37.7303 -77.6478 32° Northeast 485 558 20,900 -1,050 Descending Washington Center
Fri 10:35:16 AM 37.8422 -77.5614 31° Northeast 485 558 19,900 -1,109 Descending Washington Center
Fri 10:36:17 AM 37.9647 -77.4644 32° Northeast 473 544 18,700 -1,082 Descending Washington Center
Fri 10:37:18 AM 38.0700 -77.3881 30° Northeast 452 520 17,700 -1,017 Descending Washington Center
Fri 10:38:15 AM 38.1756 -77.3008 33° Northeast 446 513 16,700 -1,000 Descending Washington Center
Fri 10:39:18 AM 38.2789 -77.2211 31° Northeast 440 506 15,700 -793 Descending Washington Center
Fri 10:40:16 AM 38.3781 -77.1383 33° Northeast 430 495 15,100 -605 Descending Washington Center
Fri 10:41:17 AM 38.4583 -77.0447 42° Northeast 413 475 14,500 -1,587 Descending Washington Center
Fri 10:42:17 AM 38.5367 -76.9481 44° Northeast 401 461 11,900 -2,033 Descending Washington Center
Fri 10:43:18 AM 38.6106 -76.8617 42° Northeast 373 429 10,400 -1,059 Descending Washington Center
Fri 10:44:16 AM 38.6719 -76.7856 44° Northeast 336 387 9,800 -700 Descending Washington Center
Fri 10:45:18 AM 38.7228 -76.7067 50° Northeast 300 345 9,000 -1,131 Descending Washington Center
Fri 10:46:18 AM 38.7611 -76.6167 61° Northeast 289 333 7,500 -1,586 Descending Washington Center
Fri 10:46:45 AM 38.7833 -76.5667 60° Northeast 285 328 6,700 -1,556 Descending Potomac TRACON
Fri 10:47:39 AM 38.8333 -76.5167 38° Northeast 298 343 5,400 -1,250 Descending Potomac TRACON
Fri 10:48:45 AM 38.9167 -76.5167 360° North 280 322 4,200 -905 Descending Potomac TRACON
Fri 10:49:45 AM 39.0000 -76.5167 360° North 263 303 3,500 -626 Descending Potomac TRACON
Fri 10:50:40 AM 39.0500 -76.5667 322° Northwest 249 287 3,000 -991 Descending Potomac TRACON
Fri 10:51:40 AM 39.1000 -76.6000 333° Northwest 218 251 1,600 -1,150 Descending Potomac TRACON
Fri 10:52:40 AM 39.1500 -76.6500 322° Northwest 156 180 700 -900 Descending Potomac TRACON
Fri 10:54:00 AM 39.1667 -76.6667 339° North  Level FlightAware
Fri 11:01:00 AM 39.1754 -76.6683 339° North  Level Estimated
Fri 11:02:00 AM 39.1754 -76.6683 339° North  Level Estimated
Fri 11:03:00 AM 39.1754 -76.6683 339° North  Level Estimated
Fri 11:04:00 AM 39.1754 -76.6683 339° North  Level Estimated

Login

Don't have an account? Register now (free) for customized features, flight alerts, and more!